Time;durP1;ratioP1;P1;durP2;ratioP2;P2;SDS_P1;SDS_P2;PMS_P1;PMS_P2;Temp;Humidity;BMP_temperature;BMP_pressure;BME280_temperature;BME280_humidity;BME280_pressure;Samples;Min_cycle;Max_cycle;Signal;HPM_P1;HPM_P2
2022/01/13 00:00:20;;;;;;;13.57;7.75;;;-2.80;99.90;;;;;;5037738;28;20474;-78
2022/01/13 00:02:47;;;;;;;16.77;7.43;;;-2.70;99.90;;;;;;5031146;28;20056;-78
2022/01/13 00:05:17;;;;;;;13.65;8.15;;;-2.70;99.90;;;;;;5032527;28;20398;-78
2022/01/13 00:07:45;;;;;;;17.65;7.63;;;-2.80;99.90;;;;;;4983738;28;20123;-78
2022/01/13 00:10:12;;;;;;;10.73;6.20;;;-2.70;99.90;;;;;;5033481;28;20045;-78
2022/01/13 00:12:43;;;;;;;15.15;8.27;;;-2.70;99.90;;;;;;5012112;28;20056;-77
2022/01/13 00:15:27;;;;;;;14.38;7.68;;;-2.80;99.90;;;;;;4999126;28;20054;-77
2022/01/13 00:18:01;;;;;;;13.13;8.43;;;-2.70;99.90;;;;;;5028344;28;20071;-76
2022/01/13 00:20:58;;;;;;;18.33;9.60;;;-2.70;99.90;;;;;;4996002;28;20050;-77
2022/01/13 00:23:46;;;;;;;16.05;7.97;;;-2.80;99.90;;;;;;5029518;28;20049;-77
2022/01/13 00:26:20;;;;;;;12.07;6.75;;;-2.70;99.90;;;;;;5014847;28;20412;-77
2022/01/13 00:28:50;;;;;;;17.83;8.77;;;-2.80;99.90;;;;;;5017434;28;20061;-77
2022/01/13 00:31:24;;;;;;;14.65;8.38;;;-2.70;99.90;;;;;;5013440;28;20042;-77
2022/01/13 00:33:54;;;;;;;16.58;8.13;;;-2.70;99.90;;;;;;5023868;28;20049;-76
2022/01/13 00:36:22;;;;;;;20.48;8.95;;;-2.60;99.90;;;;;;5012307;28;20103;-77
2022/01/13 00:38:50;;;;;;;16.38;7.47;;;-2.70;99.90;;;;;;5016949;28;20053;-75
2022/01/13 00:41:19;;;;;;;15.73;7.70;;;-2.60;99.90;;;;;;5023168;28;20052;-76
2022/01/13 00:43:48;;;;;;;15.30;7.95;;;-2.50;99.90;;;;;;5025047;28;20527;-77
2022/01/13 00:46:21;;;;;;;15.40;8.82;;;-2.50;99.90;;;;;;5020122;28;20045;-76
2022/01/13 00:48:51;;;;;;;18.42;7.07;;;-2.50;99.90;;;;;;5029832;28;20045;-76
2022/01/13 00:51:19;;;;;;;17.35;7.53;;;-2.50;99.90;;;;;;5015040;28;20490;-77
2022/01/13 00:53:46;;;;;;;17.30;8.90;;;-2.50;99.90;;;;;;5004562;28;20070;-77
2022/01/13 00:56:14;;;;;;;19.92;9.30;;;-2.50;99.90;;;;;;4994771;28;20049;-76
2022/01/13 00:58:41;;;;;;;17.70;8.43;;;-2.50;99.90;;;;;;5019293;28;20057;-76
2022/01/13 01:01:10;;;;;;;20.95;7.55;;;-2.40;99.90;;;;;;4996977;28;20041;-76
2022/01/13 01:03:39;;;;;;;19.75;8.57;;;-2.40;99.90;;;;;;5032160;28;20107;-75
2022/01/13 01:06:08;;;;;;;23.23;10.55;;;-2.50;99.90;;;;;;5010199;28;20128;-76
2022/01/13 01:08:36;;;;;;;20.88;9.25;;;-2.40;99.90;;;;;;5029071;28;20073;-76
2022/01/13 01:11:05;;;;;;;18.55;8.82;;;-2.40;99.90;;;;;;4999337;28;20255;-76
2022/01/13 01:13:35;;;;;;;21.92;8.98;;;-2.40;99.90;;;;;;5031409;28;20080;-75
2022/01/13 01:16:07;;;;;;;20.00;9.63;;;-2.40;99.90;;;;;;5030617;28;20057;-75
2022/01/13 01:18:48;;;;;;;15.48;8.50;;;-2.40;99.90;;;;;;5015435;28;20077;-76
2022/01/13 01:21:46;;;;;;;18.75;9.63;;;-2.30;99.90;;;;;;5032183;28;20057;-76
2022/01/13 01:27:05;;;;;;;17.33;8.55;;;-2.30;99.90;;;;;;4996484;28;20061;-75
2022/01/13 01:29:39;;;;;;;20.37;9.67;;;-2.30;99.90;;;;;;4998917;28;20050;-76
2022/01/13 01:32:10;;;;;;;;;;;-2.30;99.90;;;;;;5024991;28;20054;-75
2022/01/13 01:34:53;;;;;;;17.48;9.18;;;-2.20;99.90;;;;;;5012250;28;19925;-75
2022/01/13 01:37:23;;;;;;;20.83;8.43;;;-2.20;99.90;;;;;;5025072;28;20045;-75
2022/01/13 01:39:52;;;;;;;19.02;9.43;;;-2.10;99.90;;;;;;5032135;28;20060;-75
2022/01/13 01:42:22;;;;;;;20.00;9.85;;;-2.10;99.90;;;;;;5028472;28;20091;-75
2022/01/13 01:44:53;;;;;;;20.60;10.27;;;-2.20;99.90;;;;;;5030087;28;20111;-75
2022/01/13 01:47:23;;;;;;;19.83;8.93;;;-2.10;99.90;;;;;;4980907;28;20060;-75
2022/01/13 01:49:56;;;;;;;19.40;9.50;;;-2.10;99.90;;;;;;5025044;28;20522;-75
2022/01/13 01:52:24;;;;;;;;;;;-2.10;99.90;;;;;;5022429;28;20053;-75
2022/01/13 01:54:52;;;;;;;15.45;8.77;;;-2.10;99.90;;;;;;5031404;28;20019;-75
2022/01/13 01:57:24;;;;;;;17.67;8.93;;;-2.10;99.90;;;;;;5011818;28;20045;-76
2022/01/13 01:59:54;;;;;;;17.00;8.85;;;-2.10;99.90;;;;;;5014248;28;20057;-75
2022/01/13 02:02:24;;;;;;;21.58;9.35;;;-2.10;99.90;;;;;;5013082;28;20572;-75
2022/01/13 02:04:54;;;;;;;18.85;10.55;;;-2.10;99.90;;;;;;5022977;28;20426;-76
2022/01/13 02:07:22;;;;;;;19.05;9.50;;;-2.10;99.90;;;;;;5011581;28;20046;-76
2022/01/13 02:09:52;;;;;;;21.30;10.95;;;-2.10;99.90;;;;;;5014654;28;20069;-76
2022/01/13 02:12:31;;;;;;;16.00;9.05;;;-2.10;99.90;;;;;;4997565;28;20077;-77
2022/01/13 02:15:16;;;;;;;16.38;9.18;;;-2.10;99.90;;;;;;5011664;28;20073;-76
2022/01/13 02:17:44;;;;;;;18.67;8.52;;;-2.00;99.90;;;;;;5022545;28;20076;-75
2022/01/13 02:20:19;;;;;;;17.02;9.02;;;-2.00;99.90;;;;;;5011203;28;20053;-77
2022/01/13 02:22:50;;;;;;;14.30;8.10;;;-1.90;99.90;;;;;;5030906;28;20053;-77
2022/01/13 02:25:18;;;;;;;16.20;8.57;;;-1.90;99.90;;;;;;5019534;28;20142;-76
2022/01/13 02:27:46;;;;;;;18.02;9.68;;;-1.90;99.90;;;;;;5022161;28;20054;-76
2022/01/13 02:30:15;;;;;;;17.05;8.40;;;-1.90;99.90;;;;;;5016734;28;20045;-77
2022/01/13 02:32:42;;;;;;;17.80;9.05;;;-1.80;99.90;;;;;;5010944;28;20067;-76
2022/01/13 02:35:10;;;;;;;12.98;8.13;;;-1.80;99.90;;;;;;5021520;28;20077;-77
2022/01/13 02:37:39;;;;;;;16.83;8.70;;;-1.70;99.90;;;;;;5024780;28;20060;-76
2022/01/13 02:40:08;;;;;;;20.52;9.18;;;-1.70;99.90;;;;;;5018857;28;20049;-75
2022/01/13 02:42:35;;;;;;;18.67;8.48;;;-1.60;99.90;;;;;;5031067;28;20430;-77
2022/01/13 02:45:05;;;;;;;15.40;8.32;;;-1.60;99.90;;;;;;5030166;28;20057;-76
2022/01/13 02:47:59;;;;;;;18.60;9.60;;;-1.60;99.90;;;;;;5029795;28;20088;-76
2022/01/13 02:50:25;;;;;;;;;;;-1.50;99.90;;;;;;5011532;28;20053;-76
2022/01/13 02:52:54;;;;;;;13.02;7.35;;;-1.50;99.90;;;;;;5019412;28;19925;-76
2022/01/13 02:55:24;;;;;;;16.67;9.32;;;-1.40;99.90;;;;;;5017043;28;20572;-76
2022/01/13 02:57:52;;;;;;;16.63;8.70;;;-1.30;99.90;;;;;;5029022;28;20534;-76
2022/01/13 03:00:20;;;;;;;15.30;9.20;;;-1.20;99.90;;;;;;5004473;28;20045;-76
2022/01/13 03:02:48;;;;;;;18.35;8.38;;;-1.20;99.90;;;;;;5045118;28;20049;-77
2022/01/13 03:05:16;;;;;;;15.02;7.60;;;-1.10;99.90;;;;;;5019744;28;20054;-77
2022/01/13 03:07:43;;;;;;;16.98;8.90;;;-1.10;99.90;;;;;;5026392;28;20069;-75
2022/01/13 03:10:13;;;;;;;15.52;8.18;;;-1.00;99.90;;;;;;4991288;28;20077;-76
2022/01/13 03:12:44;;;;;;;14.48;7.55;;;-0.90;99.90;;;;;;5030192;28;20088;-76
2022/01/13 03:15:12;;;;;;;23.25;10.38;;;-0.80;99.90;;;;;;5020021;28;20049;-76
2022/01/13 03:17:39;;;;;;;15.57;9.02;;;-0.80;99.90;;;;;;5014919;28;20378;-76
2022/01/13 03:20:08;;;;;;;14.48;7.35;;;-0.70;99.90;;;;;;5032643;28;20100;-76
2022/01/13 03:22:36;;;;;;;18.70;9.43;;;-0.60;99.90;;;;;;5031052;28;20042;-76
2022/01/13 03:25:16;;;;;;;13.70;6.93;;;-0.70;99.90;;;;;;5000020;28;20576;-76
2022/01/13 03:27:43;;;;;;;14.57;7.80;;;-0.60;99.90;;;;;;5020586;28;20065;-76
2022/01/13 03:30:13;;;;;;;16.98;9.07;;;-0.60;99.90;;;;;;5007466;28;20455;-77
2022/01/13 03:32:40;;;;;;;14.60;8.50;;;-0.50;99.90;;;;;;5015632;28;20049;-77
2022/01/13 03:35:08;;;;;;;14.68;8.43;;;-0.50;99.90;;;;;;5033131;28;20132;-77
2022/01/13 03:37:37;;;;;;;17.88;9.00;;;-0.50;99.90;;;;;;4987094;28;20058;-77
2022/01/13 03:40:06;;;;;;;13.95;7.38;;;-0.40;99.90;;;;;;5031552;28;20042;-77
2022/01/13 03:42:35;;;;;;;16.85;7.78;;;-0.40;99.90;;;;;;5008138;28;20045;-79
2022/01/13 03:45:02;;;;;;;17.58;8.77;;;-0.40;99.90;;;;;;5015406;28;20050;-77
2022/01/13 03:47:31;;;;;;;15.15;8.10;;;-0.40;99.90;;;;;;5044955;28;20045;-78
2022/01/13 03:49:58;;;;;;;15.05;8.18;;;-0.40;99.90;;;;;;5029153;28;20056;-77
2022/01/13 03:53:17;;;;;;;11.90;7.05;;;-0.30;99.90;;;;;;5015036;28;20054;-77
2022/01/13 03:56:46;;;;;;;14.63;7.88;;;-0.30;99.90;;;;;;5015847;28;20050;-78
2022/01/13 03:59:56;;;;;;;16.52;7.50;;;-0.30;99.90;;;;;;4978237;28;20058;-78
2022/01/13 04:02:24;;;;;;;17.80;9.00;;;-0.20;99.90;;;;;;5045485;28;20051;-77
2022/01/13 04:04:52;;;;;;;13.82;7.82;;;-0.30;99.90;;;;;;5033109;28;20037;-78
2022/01/13 04:07:21;;;;;;;13.20;8.32;;;-0.20;99.90;;;;;;5031152;28;20048;-78
2022/01/13 04:10:40;;;;;;;14.27;8.65;;;-0.20;99.90;;;;;;4987170;28;20053;-84
2022/01/13 04:13:22;;;;;;;16.77;8.50;;;-0.10;99.90;;;;;;5016010;28;20045;-88
2022/01/13 04:15:51;;;;;;;15.45;8.35;;;-0.10;99.90;;;;;;5014127;28;20049;-90
2022/01/13 04:18:19;;;;;;;16.27;8.55;;;-0.10;99.90;;;;;;5030099;28;20049;-88
2022/01/13 04:20:46;;;;;;;17.20;8.25;;;0.00;99.90;;;;;;5030086;28;20099;-90
2022/01/13 04:23:14;;;;;;;11.57;7.10;;;0.00;99.90;;;;;;5021607;28;20590;-89
2022/01/13 04:25:43;;;;;;;17.63;9.10;;;0.00;99.90;;;;;;5010753;28;20052;-87
2022/01/13 04:28:12;;;;;;;15.35;8.30;;;0.00;99.90;;;;;;5019255;28;20052;-87
2022/01/13 04:30:48;;;;;;;13.15;8.35;;;0.00;99.90;;;;;;5023558;28;20137;-88
2022/01/13 04:33:17;;;;;;;14.93;9.55;;;0.10;99.90;;;;;;5015453;28;20506;-89
2022/01/13 04:35:45;;;;;;;14.55;8.52;;;0.20;99.90;;;;;;5027490;28;20037;-81
2022/01/13 04:38:13;;;;;;;15.27;8.05;;;0.10;99.90;;;;;;5014723;28;20453;-86
2022/01/13 04:40:43;;;;;;;15.10;9.07;;;0.20;99.90;;;;;;5032911;28;20056;-86
2022/01/13 04:43:13;;;;;;;15.88;8.50;;;0.20;99.90;;;;;;4998955;28;20153;-87
2022/01/13 04:45:43;;;;;;;12.30;8.10;;;0.30;99.90;;;;;;5032432;28;20481;-85
2022/01/13 04:48:12;;;;;;;12.48;7.47;;;0.30;99.90;;;;;;5031615;28;20145;-85
2022/01/13 04:50:41;;;;;;;21.25;8.75;;;0.40;99.90;;;;;;5013555;28;20144;-85
2022/01/13 04:53:09;;;;;;;19.02;8.13;;;0.50;99.90;;;;;;5030849;28;20402;-83
2022/01/13 04:55:48;;;;;;;15.20;7.75;;;0.50;99.90;;;;;;5032237;28;20529;-87
2022/01/13 04:58:16;;;;;;;10.32;6.65;;;0.60;99.90;;;;;;5031909;28;20053;-84
2022/01/13 05:00:43;;;;;;;13.55;7.40;;;0.60;99.90;;;;;;5031306;28;20056;-83
2022/01/13 05:03:11;;;;;;;16.00;7.35;;;0.70;99.90;;;;;;5028908;28;20053;-88
2022/01/13 05:05:40;;;;;;;11.90;6.93;;;0.70;99.90;;;;;;5031782;28;20052;-85
2022/01/13 05:08:07;;;;;;;13.32;6.85;;;0.80;99.90;;;;;;5013163;28;20078;-88
2022/01/13 05:10:35;;;;;;;15.05;8.43;;;0.90;99.90;;;;;;4995589;28;20038;-88
2022/01/13 05:13:07;;;;;;;14.98;7.93;;;0.90;99.90;;;;;;5027645;28;20057;-88
2022/01/13 05:15:36;;;;;;;12.93;6.82;;;1.00;99.90;;;;;;5022620;28;20509;-86
2022/01/13 05:18:18;;;;;;;13.65;6.70;;;1.10;99.90;;;;;;5013273;28;20068;-85
2022/01/13 05:20:50;;;;;;;237.43;74.90;;;1.20;99.90;;;;;;5001065;28;20049;-85
2022/01/13 05:23:20;;;;;;;1999.90;999.90;;;1.30;99.90;;;;;;5028568;28;20285;-85
2022/01/13 05:25:47;;;;;;;29.00;27.33;;;1.50;99.90;;;;;;5027473;28;20722;-84
2022/01/13 05:28:18;;;;;;;1999.90;999.90;;;1.50;99.90;;;;;;5027432;28;20686;-84
2022/01/13 05:30:46;;;;;;;1999.90;999.90;;;1.60;99.90;;;;;;5026965;28;20288;-84
2022/01/13 05:33:13;;;;;;;1999.90;999.90;;;1.60;99.90;;;;;;5027161;28;20049;-85
2022/01/13 05:35:40;;;;;;;12.90;11.57;;;1.70;99.90;;;;;;5009784;28;20136;-85
2022/01/13 05:38:10;;;;;;;7.55;5.75;;;1.70;99.90;;;;;;5012276;28;20049;-85
2022/01/13 05:40:39;;;;;;;12.13;5.90;;;1.80;99.90;;;;;;5013377;28;20049;-86
2022/01/13 05:43:07;;;;;;;10.60;6.00;;;1.90;99.90;;;;;;5031680;28;20049;-86
2022/01/13 05:45:34;;;;;;;10.13;5.78;;;1.90;99.90;;;;;;4996313;28;20115;-84
2022/01/13 05:48:03;;;;;;;10.98;5.78;;;2.00;99.90;;;;;;5030460;28;20061;-86
2022/01/13 05:50:32;;;;;;;11.75;5.65;;;2.00;99.90;;;;;;5031289;28;20136;-85
2022/01/13 05:53:00;;;;;;;23.30;20.77;;;2.10;99.90;;;;;;5032092;28;20046;-86
2022/01/13 05:55:32;;;;;;;1999.90;999.90;;;2.20;99.90;;;;;;5031897;28;20057;-89
2022/01/13 05:58:00;;;;;;;1999.90;999.90;;;2.20;99.90;;;;;;5012693;28;20099;-87
2022/01/13 06:00:27;;;;;;;47.58;12.90;;;2.30;99.90;;;;;;4997441;28;20052;-88
2022/01/13 06:02:55;;;;;;;55.47;52.22;;;2.30;99.90;;;;;;5014707;28;20140;-88
2022/01/13 06:05:28;;;;;;;1999.90;999.90;;;2.30;99.90;;;;;;4992161;28;20477;-88
2022/01/13 06:07:56;;;;;;;27.10;24.85;;;2.30;99.90;;;;;;5011918;28;20053;-88
2022/01/13 06:10:26;;;;;;;61.28;57.38;;;2.30;99.90;;;;;;4993755;28;20570;-88
2022/01/13 06:12:57;;;;;;;83.90;78.95;;;2.40;99.90;;;;;;4993916;28;20061;-87
2022/01/13 06:15:27;;;;;;;60.60;57.20;;;2.40;99.90;;;;;;5023936;28;20069;-87
2022/01/13 06:17:57;;;;;;;78.47;74.07;;;2.40;99.90;;;;;;5013222;28;20140;-87
2022/01/13 06:20:27;;;;;;;75.28;71.07;;;2.40;99.90;;;;;;5030893;28;20666;-88
2022/01/13 06:22:54;;;;;;;72.28;68.00;;;2.50;99.90;;;;;;5030580;28;20084;-89
2022/01/13 06:25:22;;;;;;;55.65;52.40;;;2.50;99.90;;;;;;5010188;28;20494;-87
2022/01/13 06:27:55;;;;;;;40.03;37.55;;;2.50;99.90;;;;;;5010207;28;20077;-87
2022/01/13 06:30:22;;;;;;;47.55;44.53;;;2.50;99.90;;;;;;5011509;28;20486;-89
2022/01/13 06:32:50;;;;;;;72.82;68.65;;;2.60;99.90;;;;;;5018177;28;20053;-89
2022/01/13 06:35:20;;;;;;;46.33;43.40;;;2.60;99.90;;;;;;5013074;28;20050;-89
2022/01/13 06:37:47;;;;;;;58.30;55.08;;;2.60;99.90;;;;;;5010078;28;20046;-85
2022/01/13 06:40:15;;;;;;;48.00;45.03;;;2.60;99.90;;;;;;5030882;28;20041;-87
2022/01/13 06:42:43;;;;;;;46.95;43.65;;;2.70;99.90;;;;;;5030313;28;20506;-86
2022/01/13 06:45:13;;;;;;;53.55;50.13;;;2.70;99.90;;;;;;5012822;28;20045;-85
2022/01/13 06:47:42;;;;;;;59.03;55.72;;;2.80;99.90;;;;;;5013960;28;20041;-88
2022/01/13 06:50:11;;;;;;;60.58;56.75;;;2.80;99.90;;;;;;5029453;28;20498;-87
2022/01/13 06:52:41;;;;;;;40.28;37.03;;;2.80;99.90;;;;;;5032573;28;20053;-79
2022/01/13 06:55:10;;;;;;;39.20;36.72;;;2.90;99.90;;;;;;5026673;28;20522;-81
2022/01/13 06:57:42;;;;;;;51.45;48.30;;;3.00;99.90;;;;;;5015607;28;20041;-82
2022/01/13 07:00:13;;;;;;;32.38;30.23;;;3.00;99.90;;;;;;5014361;28;20041;-82
2022/01/13 07:02:40;;;;;;;33.80;31.15;;;3.00;99.90;;;;;;5027264;28;20041;-81
2022/01/13 07:05:09;;;;;;;31.75;29.42;;;3.10;99.90;;;;;;5030768;28;20132;-80
2022/01/13 07:07:39;;;;;;;28.50;26.75;;;3.10;99.90;;;;;;5027349;28;20073;-82
2022/01/13 07:10:09;;;;;;;37.88;35.60;;;3.20;99.90;;;;;;5030929;28;20072;-80
2022/01/13 07:12:40;;;;;;;42.75;40.55;;;3.10;99.90;;;;;;5034138;28;20085;-81
2022/01/13 07:15:11;;;;;;;;;;;3.20;99.90;;;;;;4997776;28;20199;-82
2022/01/13 07:17:39;;;;;;;29.85;28.05;;;3.20;99.90;;;;;;5011843;28;19929;-84
2022/01/13 07:20:09;;;;;;;48.72;46.08;;;3.20;99.90;;;;;;5001326;28;20045;-84
2022/01/13 07:22:38;;;;;;;34.63;32.40;;;3.20;99.90;;;;;;5025531;28;20064;-83
2022/01/13 07:25:06;;;;;;;40.67;38.20;;;3.20;99.90;;;;;;5036435;28;20048;-80
2022/01/13 07:27:34;;;;;;;33.00;30.92;;;3.30;99.90;;;;;;5036656;28;20049;-81
2022/01/13 07:30:03;;;;;;;27.90;25.92;;;3.30;99.90;;;;;;5002328;28;20041;-84
2022/01/13 07:32:33;;;;;;;24.25;22.55;;;3.30;99.90;;;;;;5017425;28;20060;-83
2022/01/13 07:35:02;;;;;;;26.67;24.77;;;3.40;99.90;;;;;;5016600;28;20049;-82
2022/01/13 07:37:31;;;;;;;64.65;60.55;;;3.40;99.90;;;;;;5033955;28;20045;-82
2022/01/13 07:39:58;;;;;;;64.10;60.78;;;3.50;99.90;;;;;;5009588;28;20065;-87
2022/01/13 07:42:26;;;;;;;72.07;68.13;;;3.50;99.90;;;;;;5037972;28;20432;-83
2022/01/13 07:44:54;;;;;;;56.08;52.97;;;3.60;99.90;;;;;;5033882;28;20061;-81
2022/01/13 07:47:22;;;;;;;43.92;41.40;;;3.70;99.90;;;;;;5034829;28;20468;-81
2022/01/13 07:49:51;;;;;;;47.33;44.17;;;3.70;99.90;;;;;;4996834;28;20111;-82
2022/01/13 07:52:20;;;;;;;79.20;74.55;;;3.70;99.90;;;;;;5033832;28;20742;-82
2022/01/13 07:54:48;;;;;;;76.05;70.82;;;3.70;99.90;;;;;;5033795;28;20042;-80
2022/01/13 07:57:15;;;;;;;61.33;57.95;;;3.70;99.90;;;;;;5014931;28;20099;-81
2022/01/13 07:59:43;;;;;;;55.05;51.50;;;3.70;99.90;;;;;;5032960;28;20099;-82
2022/01/13 08:02:11;;;;;;;49.78;46.33;;;3.80;99.90;;;;;;5029305;28;20049;-82
2022/01/13 08:04:38;;;;;;;48.92;46.33;;;3.80;99.90;;;;;;5013555;28;20446;-83
2022/01/13 08:07:07;;;;;;;72.88;67.05;;;3.80;99.90;;;;;;5010048;28;20512;-88
2022/01/13 08:09:35;;;;;;;72.30;68.05;;;3.90;99.90;;;;;;5014199;28;20045;-83
2022/01/13 08:12:03;;;;;;;69.68;65.95;;;3.90;99.90;;;;;;4995899;28;20041;-81
2022/01/13 08:14:30;;;;;;;66.80;62.80;;;3.90;99.90;;;;;;5015109;28;20042;-84
2022/01/13 08:17:00;;;;;;;87.18;82.35;;;3.90;99.90;;;;;;4989695;28;20541;-84
2022/01/13 08:19:45;;;;;;;50.00;47.22;;;4.00;99.90;;;;;;5013028;28;20046;-84
2022/01/13 08:22:15;;;;;;;45.22;42.65;;;3.90;99.90;;;;;;5031524;28;20057;-83
2022/01/13 08:24:44;;;;;;;46.75;43.35;;;3.90;99.90;;;;;;5015106;28;20589;-84
2022/01/13 08:27:11;;;;;;;50.90;47.47;;;3.90;99.90;;;;;;5015346;28;20421;-83
2022/01/13 08:29:39;;;;;;;47.35;44.33;;;3.90;99.90;;;;;;5011633;28;20442;-83
2022/01/13 08:32:08;;;;;;;46.22;43.58;;;3.80;99.90;;;;;;4996260;28;20136;-83
2022/01/13 08:34:36;;;;;;;57.08;53.85;;;3.80;99.90;;;;;;5031002;28;20056;-82
2022/01/13 08:37:04;;;;;;;59.95;56.88;;;3.80;99.90;;;;;;5032740;28;20053;-84
2022/01/13 08:39:38;;;;;;;74.35;70.00;;;3.80;99.90;;;;;;5032669;28;20049;-84
2022/01/13 08:42:07;;;;;;;52.05;48.25;;;3.90;99.90;;;;;;5032311;28;20505;-82
2022/01/13 08:44:34;;;;;;;48.50;45.83;;;3.80;99.90;;;;;;5014704;28;20517;-81
2022/01/13 08:47:01;;;;;;;76.50;72.05;;;3.80;99.90;;;;;;5032482;28;20050;-84
2022/01/13 08:49:33;;;;;;;63.55;60.15;;;3.80;99.90;;;;;;5031159;28;20061;-84
2022/01/13 08:52:01;;;;;;;52.33;48.88;;;3.80;99.90;;;;;;5032763;28;20050;-87
2022/01/13 08:54:29;;;;;;;94.72;88.13;;;3.80;99.90;;;;;;5013762;28;20494;-87
2022/01/13 08:56:59;;;;;;;126.65;117.35;;;3.70;99.90;;;;;;4998181;28;20045;-87
2022/01/13 08:59:27;;;;;;;66.97;62.47;;;3.70;99.90;;;;;;5032190;28;20160;-87
2022/01/13 09:01:55;;;;;;;45.05;42.28;;;3.70;99.90;;;;;;5011088;28;20042;-86
2022/01/13 09:04:22;;;;;;;48.38;45.38;;;3.70;99.90;;;;;;5012945;28;20045;-86
2022/01/13 09:06:50;;;;;;;53.60;50.90;;;3.70;99.90;;;;;;5019946;28;20498;-88
2022/01/13 09:09:18;;;;;;;49.95;47.25;;;3.60;99.90;;;;;;4994880;28;20053;-86
2022/01/13 09:11:48;;;;;;;44.95;41.90;;;3.50;99.90;;;;;;5012485;28;20042;-86
2022/01/13 09:14:24;;;;;;;49.60;46.45;;;3.50;99.90;;;;;;4993880;28;20062;-87
2022/01/13 09:16:51;;;;;;;53.92;50.80;;;3.50;99.90;;;;;;5012814;28;20061;-86
2022/01/13 09:19:20;;;;;;;40.38;37.60;;;3.40;99.90;;;;;;5012243;28;20038;-92
2022/01/13 09:21:55;;;;;;;37.05;34.90;;;3.40;99.90;;;;;;4999600;28;20052;-94
2022/01/13 09:24:25;;;;;;;34.53;32.33;;;3.40;99.90;;;;;;5009173;28;20057;-91
2022/01/13 09:26:54;;;;;;;34.67;32.58;;;3.50;99.90;;;;;;5021298;28;20049;-90
2022/01/13 09:29:25;;;;;;;34.67;32.58;;;3.60;99.90;;;;;;5017376;28;20456;-92
2022/01/13 09:31:53;;;;;;;32.38;30.15;;;3.60;99.90;;;;;;5032418;28;20115;-81
2022/01/13 09:34:20;;;;;;;56.53;53.15;;;3.70;99.90;;;;;;5006000;28;20591;-85
2022/01/13 09:36:47;;;;;;;45.00;42.55;;;3.80;99.90;;;;;;5047537;28;20049;-84
2022/01/13 09:39:15;;;;;;;50.67;47.65;;;3.90;99.90;;;;;;5032675;28;20037;-89
2022/01/13 09:41:45;;;;;;;40.75;38.25;;;4.00;99.90;;;;;;5030585;28;20136;-88
2022/01/13 09:44:14;;;;;;;49.72;47.25;;;4.10;99.90;;;;;;5045903;28;20053;-85
2022/01/13 09:46:44;;;;;;;50.85;48.08;;;4.20;99.90;;;;;;5013582;28;20060;-84
2022/01/13 09:49:13;;;;;;;46.50;43.97;;;4.20;99.90;;;;;;5030914;28;20088;-87
2022/01/13 09:51:45;;;;;;;36.05;33.83;;;4.20;99.90;;;;;;5013723;28;20529;-88
2022/01/13 09:54:13;;;;;;;41.40;39.27;;;4.20;99.90;;;;;;4991618;28;20421;-86
2022/01/13 09:56:41;;;;;;;49.00;46.05;;;4.20;99.90;;;;;;5011912;28;20396;-86
2022/01/13 09:59:09;;;;;;;34.45;32.30;;;4.20;99.90;;;;;;5007274;28;20053;-83
2022/01/13 10:01:37;;;;;;;42.05;39.60;;;4.20;99.90;;;;;;4977132;28;20079;-87
2022/01/13 10:04:06;;;;;;;40.85;38.30;;;4.10;99.90;;;;;;4991351;28;20050;-84
2022/01/13 10:06:46;;;;;;;37.13;34.97;;;4.00;99.90;;;;;;5008678;28;20459;-84
2022/01/13 10:09:16;;;;;;;48.15;45.67;;;4.00;99.90;;;;;;5026703;28;20056;-84
2022/01/13 10:11:53;;;;;;;42.28;39.60;;;4.00;99.90;;;;;;4994741;28;20072;-81
2022/01/13 10:17:15;;;;;;;43.28;40.45;;;3.90;99.90;;;;;;5019536;28;20053;-81
2022/01/13 10:19:49;;;;;;;56.28;53.25;;;4.00;99.90;;;;;;5029687;28;20057;-82
2022/01/13 10:22:20;;;;;;;44.15;41.90;;;3.90;99.90;;;;;;5026219;28;20089;-82
2022/01/13 10:24:51;;;;;;;48.85;46.30;;;3.90;99.90;;;;;;5016829;28;20060;-84
2022/01/13 10:27:22;;;;;;;43.03;40.22;;;4.00;99.90;;;;;;5029496;28;20045;-82
2022/01/13 10:29:52;;;;;;;39.20;37.30;;;4.10;99.90;;;;;;5031431;28;20047;-84
2022/01/13 10:32:22;;;;;;;32.53;30.63;;;4.10;99.90;;;;;;5013416;28;20422;-82
2022/01/13 10:35:00;;;;;;;31.13;28.92;;;4.30;99.90;;;;;;5024568;28;20417;-82
2022/01/13 10:37:33;;;;;;;31.38;28.83;;;4.40;99.90;;;;;;5047053;28;20107;-83
2022/01/13 10:40:07;;;;;;;29.65;27.95;;;4.50;99.90;;;;;;5045898;28;20481;-81
2022/01/13 10:45:51;;;;;;;28.92;27.10;;;4.40;99.90;;;;;;5006502;28;20050;-81
2022/01/13 10:48:23;;;;;;;27.38;25.38;;;4.30;99.90;;;;;;4976546;28;20053;-81
2022/01/13 10:50:57;;;;;;;30.00;27.83;;;4.30;99.90;;;;;;4994901;28;20537;-81
2022/01/13 10:53:30;;;;;;;50.92;47.15;;;4.20;99.90;;;;;;5024057;28;20050;-85
2022/01/13 10:56:05;;;;;;;30.98;29.13;;;4.20;99.90;;;;;;5012245;28;20045;-84
2022/01/13 10:58:39;;;;;;;22.15;20.63;;;4.20;99.90;;;;;;5029872;28;20050;-85
2022/01/13 11:01:10;;;;;;;37.78;35.78;;;4.40;99.90;;;;;;5030881;28;20091;-84
2022/01/13 11:03:43;;;;;;;33.33;31.40;;;4.60;99.90;;;;;;5030808;28;20053;-84
2022/01/13 11:06:15;;;;;;;22.38;21.30;;;4.60;99.90;;;;;;5028475;28;20076;-86
2022/01/13 11:08:45;;;;;;;20.60;19.40;;;4.60;99.90;;;;;;5012302;28;20050;-88
2022/01/13 11:11:19;;;;;;;20.00;18.90;;;4.50;99.90;;;;;;5028552;28;20081;-87
2022/01/13 11:13:53;;;;;;;20.25;19.15;;;4.50;99.90;;;;;;5029727;28;20053;-84
2022/01/13 11:16:22;;;;;;;29.70;27.70;;;4.60;99.90;;;;;;5030389;28;20053;-85
2022/01/13 11:18:51;;;;;;;25.20;23.63;;;4.70;99.90;;;;;;5030322;28;20494;-88
2022/01/13 11:21:20;;;;;;;22.13;20.77;;;4.70;99.90;;;;;;5018584;28;20193;-86
2022/01/13 11:23:52;;;;;;;41.70;39.60;;;4.80;99.90;;;;;;5008820;28;20141;-85
2022/01/13 11:26:27;;;;;;;18.40;17.20;;;5.00;99.90;;;;;;5009915;28;20108;-85
2022/01/13 11:29:04;;;;;;;22.08;21.02;;;4.90;99.90;;;;;;5016360;28;20303;-86
2022/01/13 11:31:34;;;;;;;32.28;30.13;;;4.90;99.90;;;;;;5011890;28;20064;-85
2022/01/13 11:34:03;;;;;;;28.35;26.60;;;5.10;99.90;;;;;;5029417;28;20156;-86
2022/01/13 11:36:32;;;;;;;33.28;31.27;;;5.20;99.90;;;;;;5011384;28;20482;-89
2022/01/13 11:39:05;;;;;;;40.42;37.72;;;5.10;99.90;;;;;;5032187;28;20061;-85
2022/01/13 11:41:35;;;;;;;35.88;33.42;;;5.20;99.90;;;;;;4999056;28;20053;-86
2022/01/13 11:44:21;;;;;;;41.65;39.17;;;5.20;99.90;;;;;;5033452;28;20073;-89
2022/01/13 11:46:51;;;;;;;54.67;50.85;;;5.20;99.90;;;;;;5033826;28;20156;-83
2022/01/13 11:49:21;;;;;;;44.35;41.17;;;5.40;99.90;;;;;;5033059;28;20110;-86
2022/01/13 11:51:57;;;;;;;41.00;38.35;;;5.50;99.90;;;;;;5015018;28;20055;-86
2022/01/13 11:54:32;;;;;;;38.95;36.60;;;5.50;99.90;;;;;;5033545;28;20263;-88
2022/01/13 11:57:16;;;;;;;36.10;33.90;;;5.60;99.90;;;;;;5028881;28;20061;-83
2022/01/13 12:00:32;;;;;;;25.65;23.80;;;5.50;99.90;;;;;;5033162;28;20538;-84
2022/01/13 12:03:01;;;;;;;30.13;28.52;;;5.40;99.90;;;;;;5031226;28;20045;-82
2022/01/13 12:05:29;;;;;;;32.30;30.65;;;5.70;99.90;;;;;;5033250;28;20059;-82
2022/01/13 12:08:02;;;;;;;35.25;33.38;;;6.10;99.90;;;;;;5026276;28;20042;-87
2022/01/13 12:10:53;;;;;;;36.10;34.15;;;6.40;99.90;;;;;;5028396;28;20054;-83
2022/01/13 12:13:44;;;;;;;39.85;37.53;;;6.80;99.90;;;;;;5037668;28;20104;-83
2022/01/13 12:16:12;;;;;;;32.75;31.02;;;7.00;99.90;;;;;;5031517;28;20117;-84
2022/01/13 12:19:08;;;;;;;43.13;40.92;;;6.80;99.90;;;;;;5014914;28;20140;-85
2022/01/13 12:21:42;;;;;;;33.75;31.85;;;6.80;99.90;;;;;;5008491;28;20060;-84
2022/01/13 12:24:18;;;;;;;41.17;38.97;;;6.50;99.90;;;;;;4989138;28;20046;-81
2022/01/13 12:26:58;;;;;;;35.97;34.10;;;6.00;99.90;;;;;;5014202;28;20107;-82
2022/01/13 12:29:30;;;;;;;42.70;40.20;;;5.70;99.90;;;;;;5014928;28;20472;-81
2022/01/13 12:32:00;;;;;;;33.33;31.25;;;5.40;99.90;;;;;;5015490;28;20425;-90
2022/01/13 12:34:55;;;;;;;33.92;31.77;;;5.20;99.90;;;;;;5030745;28;20225;-91
2022/01/13 12:37:32;;;;;;;34.88;33.25;;;5.00;99.90;;;;;;4996595;28;20109;-89
2022/01/13 12:40:14;;;;;;;63.10;59.88;;;4.80;99.90;;;;;;5026051;28;20056;-86
2022/01/13 12:42:52;;;;;;;52.20;49.60;;;4.70;99.90;;;;;;5031728;28;20065;-87
2022/01/13 12:45:32;;;;;;;54.83;52.33;;;4.50;99.90;;;;;;5032287;28;20045;-85
2022/01/13 12:48:08;;;;;;;49.55;47.08;;;4.50;99.90;;;;;;5015615;28;20055;-84
2022/01/13 12:50:39;;;;;;;42.05;39.83;;;4.40;99.90;;;;;;5032273;28;20422;-85
2022/01/13 12:53:18;;;;;;;48.80;46.30;;;4.40;99.90;;;;;;5032939;28;20053;-92
2022/01/13 12:56:00;;;;;;;43.05;40.72;;;4.30;99.90;;;;;;5032480;28;20144;-85
2022/01/13 12:58:33;;;;;;;55.45;52.85;;;4.20;99.90;;;;;;5027976;28;20132;-85
2022/01/13 13:01:16;;;;;;;48.05;45.67;;;4.10;99.90;;;;;;4996569;28;20132;-85
2022/01/13 13:03:46;;;;;;;46.20;43.90;;;4.00;99.90;;;;;;5022062;28;20049;-83
2022/01/13 13:06:17;;;;;;;44.40;41.78;;;3.90;99.90;;;;;;4995173;28;20049;-85
2022/01/13 13:08:48;;;;;;;40.38;38.20;;;3.90;99.90;;;;;;5029632;28;20144;-84